Time;durP1;ratioP1;P1;durP2;ratioP2;P2;SDS_P1;SDS_P2;PMS_P1;PMS_P2;Temp;Humidity;BMP_temperature;BMP_pressure;BME280_temperature;BME280_humidity;BME280_pressure;Samples;Min_cycle;Max_cycle;Signal;HPM_P1;HPM_P2
2023/11/15 00:01:01;;;;;;;5.15;2.08;;;;;;;9.90;56.95;100387.34;5062332;27;20430;-74
2023/11/15 00:03:29;;;;;;;5.50;2.28;;;;;;;9.89;56.46;100386.50;5045917;28;20048;-74
2023/11/15 00:05:58;;;;;;;5.68;2.55;;;;;;;9.90;56.83;100392.81;5045304;28;20069;-74
2023/11/15 00:08:27;;;;;;;5.70;2.40;;;;;;;9.90;56.48;100398.28;5061443;28;20057;-74
2023/11/15 00:10:55;;;;;;;5.93;2.33;;;;;;;9.92;56.52;100410.78;5046496;28;20044;-74
2023/11/15 00:13:23;;;;;;;6.72;2.42;;;;;;;9.93;56.69;100406.19;5046917;28;20076;-74
2023/11/15 00:15:51;;;;;;;5.72;2.40;;;;;;;9.94;56.70;100410.66;5043178;28;20087;-74
2023/11/15 00:18:21;;;;;;;6.53;2.75;;;;;;;9.95;56.57;100395.97;5043248;28;20134;-74
2023/11/15 00:20:51;;;;;;;6.07;2.47;;;;;;;9.95;56.64;100404.19;5046649;28;20524;-74
2023/11/15 00:23:19;;;;;;;5.43;2.60;;;;;;;9.94;57.09;100406.03;5047082;28;20053;-74
2023/11/15 00:25:47;;;;;;;9.85;3.00;;;;;;;9.97;56.67;100416.72;5043343;28;20118;-74
2023/11/15 00:28:16;;;;;;;4.25;2.50;;;;;;;9.99;57.13;100408.38;5045760;28;20463;-74
2023/11/15 00:30:44;;;;;;;7.13;2.80;;;;;;;9.99;56.70;100428.34;5045216;28;20122;-75
2023/11/15 00:33:12;;;;;;;7.10;2.45;;;;;;;9.99;56.61;100427.50;5045132;28;20060;-74
2023/11/15 00:35:42;;;;;;;6.45;2.92;;;;;;;10.01;56.62;100426.34;5042871;28;21290;-75
2023/11/15 00:38:11;;;;;;;5.18;2.97;;;;;;;10.01;56.64;100425.47;5044762;28;20052;-74
2023/11/15 00:40:41;;;;;;;7.40;2.72;;;;;;;10.01;56.94;100437.28;5045569;28;20587;-74
2023/11/15 00:43:09;;;;;;;7.13;2.50;;;;;;;10.02;56.72;100439.00;5044568;28;20061;-73
2023/11/15 00:45:37;;;;;;;5.95;2.83;;;;;;;10.02;56.86;100441.75;5044793;28;20053;-73
2023/11/15 00:48:05;;;;;;;4.78;2.67;;;;;;;10.04;57.02;100452.53;5042458;28;20800;-73
2023/11/15 00:50:33;;;;;;;6.88;2.70;;;;;;;10.04;56.97;100453.41;5045333;28;20052;-73
2023/11/15 00:53:04;;;;;;;6.82;2.55;;;;;;;10.06;56.78;100462.34;5046156;28;20049;-73
2023/11/15 00:55:32;;;;;;;9.18;3.45;;;;;;;10.05;56.83;100455.16;5045994;28;20132;-73
2023/11/15 00:58:03;;;;;;;5.45;2.53;;;;;;;10.07;56.83;100455.84;5044953;28;20053;-73
2023/11/15 01:00:39;;;;;;;6.80;2.92;;;;;;;10.05;56.52;100463.34;5044527;28;20346;-73
2023/11/15 01:03:07;;;;;;;5.88;2.55;;;;;;;10.06;56.51;100466.94;5043937;28;20051;-73
2023/11/15 01:05:35;;;;;;;5.28;2.80;;;;;;;10.06;56.28;100481.50;5044021;28;20080;-73
2023/11/15 01:08:05;;;;;;;6.88;2.92;;;;;;;10.07;56.83;100485.91;5046274;28;20049;-73
2023/11/15 01:10:33;;;;;;;7.45;3.15;;;;;;;10.06;56.36;100488.81;5041502;28;20389;-73
2023/11/15 01:13:01;;;;;;;5.28;2.60;;;;;;;10.06;56.83;100488.81;5031626;28;20123;-73
2023/11/15 01:15:29;;;;;;;6.15;2.65;;;;;;;10.07;56.97;100490.56;5030927;28;20053;-74
2023/11/15 01:17:58;;;;;;;6.18;2.60;;;;;;;10.06;56.77;100497.03;5030194;28;20052;-74
2023/11/15 01:20:26;;;;;;;5.72;2.55;;;;;;;10.07;56.60;100496.03;5030066;28;20044;-73
2023/11/15 01:22:54;;;;;;;6.30;2.42;;;;;;;10.06;57.02;100497.88;5032512;28;20076;-73
2023/11/15 01:25:23;;;;;;;5.85;2.45;;;;;;;10.09;56.41;100505.78;5031354;28;20095;-73
2023/11/15 01:27:51;;;;;;;4.43;2.22;;;;;;;10.07;56.49;100505.06;5035531;28;20520;-73
2023/11/15 01:30:19;;;;;;;6.28;2.30;;;;;;;10.08;56.63;100505.94;5040315;28;20045;-73
2023/11/15 01:32:47;;;;;;;6.55;2.50;;;;;;;10.09;56.68;100515.88;5028599;28;20065;-78
2023/11/15 01:35:17;;;;;;;4.03;2.42;;;;;;;10.09;56.98;100515.88;5029803;28;20132;-73
2023/11/15 01:37:46;;;;;;;6.55;2.75;;;;;;;10.09;56.67;100524.06;5031704;28;21207;-73
2023/11/15 01:40:19;;;;;;;5.43;2.90;;;;;;;10.09;56.47;100526.81;5031305;28;20719;-73
2023/11/15 01:42:49;;;;;;;5.93;2.40;;;;;;;10.10;56.88;100534.88;5029053;28;20045;-73
2023/11/15 01:45:17;;;;;;;5.07;2.47;;;;;;;10.11;56.68;100541.22;5030975;28;20065;-73
2023/11/15 01:47:45;;;;;;;5.88;2.67;;;;;;;10.10;56.53;100539.47;5030799;28;21717;-73
2023/11/15 01:50:14;;;;;;;4.30;2.22;;;;;;;10.10;56.67;100537.59;5030672;28;20034;-73
2023/11/15 01:52:43;;;;;;;7.20;2.70;;;;;;;10.11;56.61;100546.69;5030413;28;20135;-73
2023/11/15 01:55:14;;;;;;;6.30;2.55;;;;;;;10.12;56.46;100543.81;5029415;28;20057;-73
2023/11/15 01:57:42;;;;;;;5.78;2.30;;;;;;;10.11;56.50;100561.22;5031051;28;21423;-72
2023/11/15 02:00:14;;;;;;;6.72;2.28;;;;;;;10.14;56.91;100562.81;5027758;28;20056;-72
2023/11/15 02:02:44;;;;;;;6.40;2.55;;;;;;;10.11;57.00;100574.03;5028397;28;20072;-72
2023/11/15 02:05:13;;;;;;;7.40;2.70;;;;;;;10.11;56.44;100563.94;5029177;28;20056;-74
2023/11/15 02:07:43;;;;;;;5.13;2.50;;;;;;;10.13;56.95;100569.28;5029924;28;20076;-74
2023/11/15 02:10:12;;;;;;;5.95;2.55;;;;;;;10.11;56.81;100566.69;5028972;28;20046;-74
2023/11/15 02:12:40;;;;;;;4.72;2.38;;;;;;;10.12;56.73;100575.75;5046098;28;20132;-73
2023/11/15 02:15:09;;;;;;;6.90;2.53;;;;;;;10.13;56.70;100578.34;5027876;28;20077;-74
2023/11/15 02:17:38;;;;;;;6.53;2.70;;;;;;;10.14;57.15;100580.09;5028095;28;20120;-74
2023/11/15 02:20:08;;;;;;;8.30;2.35;;;;;;;10.14;56.55;100573.75;5028797;28;21241;-74
2023/11/15 02:22:44;;;;;;;7.13;2.45;;;;;;;10.16;57.18;100582.66;5029499;28;20056;-74
2023/11/15 02:25:14;;;;;;;6.32;2.35;;;;;;;10.16;56.81;100596.34;5027070;28;21308;-74
2023/11/15 02:27:42;;;;;;;5.55;2.33;;;;;;;10.14;56.94;100593.75;5029303;28;20112;-74
2023/11/15 02:30:11;;;;;;;5.60;2.28;;;;;;;10.15;56.68;100594.63;5029914;28;20381;-73
2023/11/15 02:32:41;;;;;;;3.97;1.98;;;;;;;10.16;56.74;100596.34;5029956;28;20306;-75
2023/11/15 02:35:10;;;;;;;6.13;2.55;;;;;;;10.14;56.58;100601.97;5029649;28;20060;-74
2023/11/15 02:37:38;;;;;;;5.47;2.63;;;;;;;10.15;56.88;100598.19;5030539;28;20116;-74
2023/11/15 02:40:09;;;;;;;6.03;2.47;;;;;;;10.17;56.58;100609.88;5029952;28;20524;-74
2023/11/15 02:42:39;;;;;;;5.72;2.47;;;;;;;10.18;56.71;100610.75;5030300;28;20049;-74
2023/11/15 02:45:07;;;;;;;5.72;2.55;;;;;;;10.17;56.49;100614.47;5028973;28;20073;-74
2023/11/15 02:47:35;;;;;;;5.95;2.65;;;;;;;10.17;56.36;100617.22;5029309;28;20064;-73
2023/11/15 02:50:04;;;;;;;5.97;2.50;;;;;;;10.18;56.76;100617.06;5028770;28;20053;-74
2023/11/15 02:52:33;;;;;;;4.95;2.60;;;;;;;10.18;56.54;100616.22;5030210;28;20059;-74
2023/11/15 02:55:00;;;;;;;5.03;2.67;;;;;;;10.17;56.35;100617.22;5028889;28;20057;-74
2023/11/15 02:57:28;;;;;;;4.18;2.70;;;;;;;10.18;56.89;100616.22;5030758;28;20052;-74
2023/11/15 02:59:58;;;;;;;7.53;2.88;;;;;;;10.20;56.57;100620.56;5028186;28;20045;-73
2023/11/15 03:02:26;;;;;;;5.50;2.70;;;;;;;10.19;56.58;100626.16;5030243;28;20660;-74
2023/11/15 03:04:54;;;;;;;5.35;2.47;;;;;;;10.19;56.75;100627.03;5028631;28;20048;-74
2023/11/15 03:07:23;;;;;;;5.40;2.42;;;;;;;10.19;56.85;100635.22;5028996;28;20600;-74
2023/11/15 03:09:51;;;;;;;5.28;2.80;;;;;;;10.20;56.61;100633.34;5029927;28;20416;-74
2023/11/15 03:12:19;;;;;;;4.90;2.67;;;;;;;10.20;56.74;100639.69;5029668;28;20056;-74
2023/11/15 03:14:47;;;;;;;4.90;2.33;;;;;;;10.21;56.85;100640.56;5027896;28;20131;-74
2023/11/15 03:17:18;;;;;;;7.18;3.35;;;;;;;10.22;56.33;100648.63;5029165;28;20111;-74
2023/11/15 03:19:46;;;;;;;6.72;2.40;;;;;;;10.21;56.72;100646.03;5029595;28;20139;-74
2023/11/15 03:22:15;;;;;;;6.50;2.60;;;;;;;10.22;56.25;100645.03;5029345;28;20061;-74
2023/11/15 03:24:45;;;;;;;4.88;2.50;;;;;;;10.21;56.36;100657.84;5027483;28;20917;-74
2023/11/15 03:27:13;;;;;;;5.90;2.58;;;;;;;10.21;56.53;100655.09;5028082;28;20096;-74
2023/11/15 03:29:41;;;;;;;6.75;2.53;;;;;;;10.22;56.39;100661.44;5024165;28;20055;-74
2023/11/15 03:32:09;;;;;;;6.78;2.65;;;;;;;10.22;56.43;100664.19;5026582;28;20041;-74
2023/11/15 03:34:41;;;;;;;4.80;2.13;;;;;;;10.27;56.01;100671.97;5022606;28;20456;-74
2023/11/15 03:37:10;;;;;;;6.30;2.60;;;;;;;10.21;56.49;100668.78;5023798;28;20148;-74
2023/11/15 03:39:38;;;;;;;6.13;2.42;;;;;;;10.22;56.40;100680.59;5022384;28;20496;-74
2023/11/15 03:42:07;;;;;;;4.75;2.53;;;;;;;10.22;56.14;100681.47;5021880;28;20068;-73
2023/11/15 03:44:35;;;;;;;5.72;2.60;;;;;;;10.22;56.48;100689.66;5025137;28;20176;-74
2023/11/15 03:47:03;;;;;;;5.13;2.92;;;;;;;10.23;56.00;100696.00;5024573;28;20060;-74
2023/11/15 03:49:31;;;;;;;4.57;2.75;;;;;;;10.23;56.51;100690.53;5022735;28;20158;-73
2023/11/15 03:52:01;;;;;;;8.43;2.83;;;;;;;10.23;56.34;100696.84;5024471;28;20132;-74
2023/11/15 03:54:29;;;;;;;7.32;2.92;;;;;;;10.21;56.53;100696.13;5024075;28;20586;-73
2023/11/15 03:56:57;;;;;;;5.65;2.78;;;;;;;10.23;56.03;100696.00;5022786;28;20099;-74
2023/11/15 03:59:25;;;;;;;6.82;3.03;;;;;;;10.22;56.39;100705.19;5026684;28;20051;-74
2023/11/15 04:01:53;;;;;;;6.13;2.35;;;;;;;10.21;56.28;100703.47;5025133;28;20451;-74
2023/11/15 04:04:26;;;;;;;5.50;2.33;;;;;;;10.20;56.13;100708.06;5026608;28;20045;-74
2023/11/15 04:06:55;;;;;;;6.38;2.60;;;;;;;10.21;55.95;100719.88;5021913;28;20049;-73
2023/11/15 04:09:24;;;;;;;5.65;2.70;;;;;;;10.22;56.32;100718.88;5024600;28;21227;-74
2023/11/15 04:11:52;;;;;;;6.20;2.90;;;;;;;10.21;55.89;100720.75;5025128;28;20104;-74
2023/11/15 04:14:21;;;;;;;7.38;2.58;;;;;;;10.21;56.22;100720.75;5025427;28;20056;-73
2023/11/15 04:16:50;;;;;;;6.57;2.47;;;;;;;10.21;55.88;100717.13;5024936;28;20056;-74
2023/11/15 04:19:21;;;;;;;4.63;2.45;;;;;;;10.20;55.84;100716.28;5022492;28;20146;-74
2023/11/15 04:21:49;;;;;;;8.98;2.20;;;;;;;10.19;55.72;100730.94;5025979;28;20044;-74
2023/11/15 04:24:38;;;;;;;9.07;2.60;;;;;;;10.20;56.15;100738.16;5023572;28;20053;-74
2023/11/15 04:27:07;;;;;;;7.30;2.70;;;;;;;10.20;55.82;100729.06;5024197;28;20966;-73
2023/11/15 04:29:37;;;;;;;7.65;2.42;;;;;;;10.20;55.71;100738.16;5024685;28;20049;-74
2023/11/15 04:32:05;;;;;;;5.32;2.40;;;;;;;10.20;55.65;100742.75;5022163;28;20041;-74
2023/11/15 04:34:33;;;;;;;8.45;2.70;;;;;;;10.22;56.03;100747.09;5021326;28;20140;-74
2023/11/15 04:37:01;;;;;;;7.32;2.20;;;;;;;10.21;56.00;100741.75;5020598;28;20053;-74
2023/11/15 04:39:29;;;;;;;5.70;2.10;;;;;;;10.20;55.51;100737.28;5025586;28;20053;-74
2023/11/15 04:41:58;;;;;;;4.95;2.13;;;;;;;10.21;56.04;100745.34;5023214;28;20062;-74
2023/11/15 04:44:27;;;;;;;6.75;2.63;;;;;;;10.20;56.03;100753.69;5019710;28;20064;-74
2023/11/15 04:46:55;;;;;;;6.00;2.20;;;;;;;10.18;55.93;100750.22;5021759;28;20064;-74
2023/11/15 04:49:22;;;;;;;5.93;2.00;;;;;;;10.18;56.16;100740.16;5024341;28;20080;-74
2023/11/15 04:51:50;;;;;;;5.28;2.28;;;;;;;10.18;56.14;100750.22;5026200;28;20145;-74
2023/11/15 04:54:18;;;;;;;6.25;1.95;;;;;;;10.17;55.77;100749.34;5027002;28;20041;-74
2023/11/15 04:56:46;;;;;;;5.25;2.10;;;;;;;10.16;55.66;100755.81;5024855;28;20060;-74
2023/11/15 04:59:15;;;;;;;5.13;2.33;;;;;;;10.18;55.79;100753.81;5026804;28;20057;-74
2023/11/15 05:01:45;;;;;;;5.75;1.92;;;;;;;10.18;55.61;100762.03;5026652;28;20057;-74
2023/11/15 05:04:14;;;;;;;5.95;2.00;;;;;;;10.18;55.46;100766.63;5026685;28;20609;-73
2023/11/15 05:06:42;;;;;;;5.80;1.90;;;;;;;10.18;55.87;100769.38;5026743;28;20049;-74
2023/11/15 05:09:10;;;;;;;8.50;2.80;;;;;;;10.17;55.68;100771.22;5024550;28;20084;-74
2023/11/15 05:11:38;;;;;;;6.32;2.03;;;;;;;10.17;55.99;100784.03;5026783;28;20474;-74
2023/11/15 05:14:07;;;;;;;5.70;2.00;;;;;;;10.16;55.53;100780.44;5026481;28;20053;-74
2023/11/15 05:16:36;;;;;;;4.68;2.00;;;;;;;10.18;55.85;100777.56;5023240;28;20045;-74
2023/11/15 05:19:04;;;;;;;5.18;1.88;;;;;;;10.17;55.94;100787.63;5025894;28;20050;-74
2023/11/15 05:21:32;;;;;;;5.65;1.90;;;;;;;10.16;55.88;100785.91;5026501;28;20049;-74
2023/11/15 05:24:00;;;;;;;5.80;1.95;;;;;;;10.17;55.61;100790.38;5023343;28;20053;-74
2023/11/15 05:26:29;;;;;;;6.82;2.13;;;;;;;10.16;55.92;100785.03;5023836;28;20052;-74
2023/11/15 05:28:57;;;;;;;7.05;2.40;;;;;;;10.17;55.55;100792.25;5024148;28;20565;-74
2023/11/15 05:31:25;;;;;;;10.20;2.45;;;;;;;10.16;55.39;100791.38;5025033;28;20787;-74
2023/11/15 05:33:55;;;;;;;6.35;2.20;;;;;;;10.18;55.62;100788.50;5015754;28;20134;-74
2023/11/15 05:36:23;;;;;;;6.80;2.00;;;;;;;10.16;55.56;100799.56;5013950;28;20126;-74
2023/11/15 05:38:51;;;;;;;5.53;1.98;;;;;;;10.16;55.85;100796.84;5012034;28;20140;-74
2023/11/15 05:41:19;;;;;;;6.80;2.17;;;;;;;10.16;55.72;100802.31;5013798;28;20049;-74
2023/11/15 05:43:48;;;;;;;6.45;1.88;;;;;;;10.16;55.84;100817.84;5008640;28;20103;-74
2023/11/15 05:46:16;;;;;;;7.45;2.00;;;;;;;10.16;55.60;100823.31;5012108;28;20538;-74
2023/11/15 05:48:44;;;;;;;6.97;2.17;;;;;;;10.15;55.94;100825.19;5011938;28;20045;-74
2023/11/15 05:51:13;;;;;;;6.38;2.00;;;;;;;10.16;55.56;100828.78;5011626;28;20123;-74
2023/11/15 05:53:42;;;;;;;4.80;1.83;;;;;;;10.14;55.88;100837.16;5010355;28;20064;-73
2023/11/15 05:56:10;;;;;;;6.22;2.10;;;;;;;10.13;55.72;100827.22;5011143;28;20539;-73
2023/11/15 05:58:41;;;;;;;6.18;1.88;;;;;;;10.13;56.31;100823.59;5009782;28;20053;-72
2023/11/15 06:01:09;;;;;;;6.60;2.05;;;;;;;10.12;55.98;100813.66;5009672;28;20045;-73
2023/11/15 06:03:37;;;;;;;6.00;1.60;;;;;;;10.12;56.29;100822.72;5007850;28;20055;-73
2023/11/15 06:06:06;;;;;;;4.80;1.80;;;;;;;10.11;55.85;100818.25;5010182;28;20115;-73
2023/11/15 06:08:35;;;;;;;5.45;1.98;;;;;;;10.11;56.46;100815.53;5008731;28;20122;-73
2023/11/15 06:11:04;;;;;;;5.85;1.88;;;;;;;10.09;55.77;100812.03;5010893;28;20915;-73
2023/11/15 06:13:32;;;;;;;6.88;1.80;;;;;;;10.08;56.05;100813.03;5026142;28;20046;-74
2023/11/15 06:16:00;;;;;;;4.43;1.70;;;;;;;10.08;56.06;100821.25;5010335;28;20053;-74
2023/11/15 06:18:28;;;;;;;8.43;2.30;;;;;;;10.08;55.98;100831.31;5013052;28;20543;-75
2023/11/15 06:20:56;;;;;;;7.45;2.30;;;;;;;10.07;56.08;100822.25;5023743;28;20166;-75
2023/11/15 06:23:24;;;;;;;7.32;2.05;;;;;;;10.07;56.16;100832.34;5012401;28;20049;-76
2023/11/15 06:25:53;;;;;;;7.28;2.10;;;;;;;10.08;56.42;100832.19;5010685;28;20069;-75
2023/11/15 06:28:21;;;;;;;5.55;2.20;;;;;;;10.06;55.98;100827.88;5010732;28;20049;-74
2023/11/15 06:30:49;;;;;;;6.80;2.00;;;;;;;10.07;56.01;100832.34;5013907;28;20049;-75
2023/11/15 06:33:17;;;;;;;7.00;2.38;;;;;;;10.06;56.10;100828.75;5009777;28;20057;-75
2023/11/15 06:35:45;;;;;;;7.72;2.45;;;;;;;10.07;56.11;100829.59;5010086;28;20107;-75
2023/11/15 06:38:14;;;;;;;6.80;1.95;;;;;;;10.06;56.51;100826.00;5010805;28;20063;-76
2023/11/15 06:40:42;;;;;;;6.18;1.95;;;;;;;10.06;55.87;100822.41;5009899;28;20056;-74
2023/11/15 06:43:11;;;;;;;6.65;2.30;;;;;;;10.07;56.15;100829.59;5010812;28;20440;-75
2023/11/15 06:45:39;;;;;;;6.15;2.15;;;;;;;10.06;56.57;100825.13;5011758;28;20045;-75
2023/11/15 06:48:07;;;;;;;5.25;2.75;;;;;;;10.05;56.22;100829.72;5013467;28;20096;-75
2023/11/15 06:50:35;;;;;;;5.85;2.10;;;;;;;10.06;56.51;100838.81;5016190;28;21011;-74
2023/11/15 06:53:03;;;;;;;5.43;2.25;;;;;;;10.06;56.41;100842.41;5014644;28;20496;-75
2023/11/15 06:55:31;;;;;;;6.95;2.38;;;;;;;10.05;56.52;100843.41;5012849;28;20060;-75
2023/11/15 06:57:59;;;;;;;6.63;2.63;;;;;;;10.06;56.01;100849.75;5011286;28;20056;-76
2023/11/15 07:00:31;;;;;;;8.38;2.42;;;;;;;10.08;56.16;100855.94;5014482;28;20109;-75
2023/11/15 07:03:03;;;;;;;9.07;2.47;;;;;;;10.05;56.43;100848.88;5011313;28;20049;-76
2023/11/15 07:05:32;;;;;;;7.88;2.60;;;;;;;10.06;56.58;100849.75;5012309;28;20056;-76
2023/11/15 07:08:00;;;;;;;6.43;2.60;;;;;;;10.06;56.06;100858.81;5014108;28;20127;-76
2023/11/15 07:10:29;;;;;;;6.97;2.50;;;;;;;10.07;56.05;100851.47;5016528;28;20041;-76
2023/11/15 07:13:00;;;;;;;7.03;2.40;;;;;;;10.07;56.00;100865.16;5013622;28;20050;-76
2023/11/15 07:15:30;;;;;;;6.82;2.63;;;;;;;10.08;56.18;100869.59;5016722;28;20055;-76
2023/11/15 07:17:58;;;;;;;6.00;2.70;;;;;;;10.06;56.38;100877.97;5013671;28;20053;-76
2023/11/15 07:20:26;;;;;;;6.53;2.53;;;;;;;10.06;56.46;100877.97;5014758;28;20060;-76
2023/11/15 07:22:54;;;;;;;6.18;2.75;;;;;;;10.07;56.43;100884.28;5015521;28;20534;-75
2023/11/15 07:25:22;;;;;;;5.50;2.22;;;;;;;10.07;56.57;100895.22;5015820;28;20053;-75
2023/11/15 07:27:55;;;;;;;7.72;2.60;;;;;;;10.07;56.62;100895.22;5013614;28;20180;-76
2023/11/15 07:30:23;;;;;;;4.13;2.13;;;;;;;10.06;56.55;100896.22;5015873;28;20045;-75
2023/11/15 07:32:54;;;;;;;8.23;2.28;;;;;;;10.09;56.31;100901.41;5014268;28;20057;-75
2023/11/15 07:35:25;;;;;;;6.22;2.25;;;;;;;10.09;56.34;100906.88;5015281;28;20057;-75
2023/11/15 07:37:53;;;;;;;6.40;2.15;;;;;;;10.07;55.97;100898.81;5024318;28;20415;-76
2023/11/15 07:40:22;;;;;;;5.63;2.10;;;;;;;10.07;56.27;100912.47;5023933;28;20052;-76
2023/11/15 07:42:51;;;;;;;7.68;2.40;;;;;;;10.09;55.84;100917.81;5021830;28;20144;-75
2023/11/15 07:45:19;;;;;;;6.05;2.55;;;;;;;10.08;56.07;100914.22;5025553;28;20390;-76
2023/11/15 07:47:47;;;;;;;6.70;2.20;;;;;;;10.08;56.00;100925.16;5022822;28;20055;-76
2023/11/15 07:50:17;;;;;;;4.93;2.40;;;;;;;10.10;55.99;100936.84;5024841;28;20053;-76
2023/11/15 07:52:46;;;;;;;6.57;2.67;;;;;;;10.09;56.47;100939.69;5025592;28;20045;-77
2023/11/15 07:55:15;;;;;;;6.50;2.30;;;;;;;10.09;56.04;100946.03;5026583;28;20072;-77
2023/11/15 07:57:43;;;;;;;7.88;2.50;;;;;;;10.10;56.12;100936.84;5026822;22;20053;-76
2023/11/15 08:00:12;;;;;;;6.25;2.45;;;;;;;10.11;56.13;100949.53;5013160;28;20816;-75
2023/11/15 08:02:42;;;;;;;6.47;2.38;;;;;;;10.11;55.98;100941.31;5014467;28;20692;-76
2023/11/15 08:05:10;;;;;;;5.47;2.28;;;;;;;10.12;55.74;100950.41;5014894;28;20113;-74
2023/11/15 08:07:39;;;;;;;8.35;2.50;;;;;;;10.14;56.36;100952.00;5012384;28;20144;-74
2023/11/15 08:10:12;;;;;;;5.00;2.40;;;;;;;10.13;56.02;100953.00;5013800;28;20062;-74
2023/11/15 08:12:41;;;;;;;8.27;2.30;;;;;;;10.12;56.21;100951.25;5013317;28;20050;-74
2023/11/15 08:15:15;;;;;;;5.93;2.55;;;;;;;10.16;56.33;100966.41;5012739;28;20056;-74
2023/11/15 08:17:44;;;;;;;6.63;2.22;;;;;;;10.16;56.27;100955.47;5012873;28;20057;-74
2023/11/15 08:20:12;;;;;;;7.03;2.20;;;;;;;10.17;56.25;100970.00;5013950;28;20066;-74
2023/11/15 08:22:41;;;;;;;5.93;2.20;;;;;;;10.18;55.87;100971.75;5017043;28;20049;-74
2023/11/15 08:25:10;;;;;;;5.35;2.00;;;;;;;10.18;55.79;100958.06;5018599;28;20590;-74
2023/11/15 08:27:40;;;;;;;6.47;2.30;;;;;;;10.18;56.20;100975.34;5017376;28;20046;-75
2023/11/15 08:30:12;;;;;;;8.15;2.17;;;;;;;10.19;55.89;100976.22;5018631;28;20081;-74
2023/11/15 08:32:41;;;;;;;6.30;2.58;;;;;;;10.18;55.89;100985.44;5018133;28;20661;-75
2023/11/15 08:35:10;;;;;;;4.90;2.13;;;;;;;10.20;55.78;100987.03;5018466;28;20087;-75
2023/11/15 08:37:38;;;;;;;9.48;2.40;;;;;;;10.21;56.00;100991.53;5016166;28;20142;-75
2023/11/15 08:40:11;;;;;;;8.32;2.28;;;;;;;10.23;56.17;100984.03;5018331;28;20108;-75
2023/11/15 08:42:55;;;;;;;5.50;2.10;;;;;;;10.21;55.84;100999.72;5017151;28;20053;-75
2023/11/15 08:45:23;;;;;;;5.43;1.85;;;;;;;10.23;56.38;101000.44;5018041;28;20046;-75
2023/11/15 08:47:56;;;;;;;7.82;2.10;;;;;;;10.26;56.40;101004.78;5016480;28;20964;-75
2023/11/15 08:50:27;;;;;;;6.93;1.85;;;;;;;10.27;56.31;101002.94;5018734;28;20054;-75
2023/11/15 08:52:56;;;;;;;7.60;1.98;;;;;;;10.29;56.18;101004.56;4996720;28;20073;-75
2023/11/15 08:55:26;;;;;;;4.53;1.77;;;;;;;10.31;56.13;100999.81;5012754;28;20046;-75
2023/11/15 08:57:56;;;;;;;5.63;2.05;;;;;;;10.31;55.84;101008.03;5015565;28;20053;-75
2023/11/15 09:00:24;;;;;;;6.05;2.15;;;;;;;10.33;55.73;101011.47;5018813;28;20049;-75
2023/11/15 09:02:52;;;;;;;5.40;2.00;;;;;;;10.34;56.09;101015.09;5017479;28;20057;-75
2023/11/15 09:05:22;;;;;;;6.32;2.20;;;;;;;10.36;56.18;101011.22;5016838;28;20087;-75
2023/11/15 09:07:51;;;;;;;4.38;2.25;;;;;;;10.38;55.69;101013.84;5016942;28;20065;-75
2023/11/15 09:10:20;;;;;;;4.47;1.88;;;;;;;10.39;56.09;101021.94;5018368;28;20131;-75
2023/11/15 09:12:50;;;;;;;4.78;1.88;;;;;;;10.42;55.82;101015.31;5018958;28;20065;-75
2023/11/15 09:15:20;;;;;;;6.32;2.25;;;;;;;10.41;55.83;101008.97;5034438;28;20439;-75
2023/11/15 09:17:50;;;;;;;4.40;1.90;;;;;;;10.42;55.50;101024.38;5016818;28;20046;-75
2023/11/15 09:20:21;;;;;;;7.25;2.10;;;;;;;10.44;55.84;101021.53;5018956;28;20058;-75
2023/11/15 09:22:50;;;;;;;4.80;1.88;;;;;;;10.45;55.84;101036.94;5017229;28;20056;-75
2023/11/15 09:25:22;;;;;;;5.25;1.88;;;;;;;10.47;55.55;101041.31;5018916;28;20160;-75
2023/11/15 09:27:54;;;;;;;6.57;2.13;;;;;;;10.48;55.43;101042.19;5016741;28;20060;-75
2023/11/15 09:30:24;;;;;;;6.30;1.70;;;;;;;10.47;55.89;101044.03;5018635;28;20127;-75
2023/11/15 09:32:53;;;;;;;3.88;1.60;;;;;;;10.50;55.60;101045.63;5018406;28;20053;-75
2023/11/15 09:35:23;;;;;;;6.03;1.95;;;;;;;10.51;55.81;101050.97;5020545;28;20062;-75
2023/11/15 09:37:51;;;;;;;8.60;2.67;;;;;;;10.50;55.56;101040.16;5019391;28;20493;-75
2023/11/15 09:40:21;;;;;;;6.00;2.08;;;;;;;10.51;55.29;101040.03;5017761;28;20065;-75
2023/11/15 09:42:54;;;;;;;7.72;1.95;;;;;;;10.55;54.99;101049.78;5019372;28;20088;-75
2023/11/15 09:45:24;;;;;;;5.78;2.15;;;;;;;10.52;55.13;101039.03;5019636;28;20064;-75
2023/11/15 09:47:53;;;;;;;4.63;1.85;;;;;;;10.54;55.57;101050.75;5017124;28;20136;-74
2023/11/15 09:50:22;;;;;;;5.75;1.90;;;;;;;10.55;55.49;101049.78;5018152;28;20049;-75
2023/11/15 09:52:54;;;;;;;6.18;1.83;;;;;;;10.54;55.54;101056.25;5021125;28;20057;-74
2023/11/15 09:55:24;;;;;;;4.38;1.60;;;;;;;10.58;55.32;101051.34;5019992;28;20511;-75
2023/11/15 09:57:55;;;;;;;6.72;1.83;;;;;;;10.60;55.30;101052.09;5020533;28;20051;-75
2023/11/15 10:00:29;;;;;;;5.47;1.58;;;;;;;10.60;55.13;101057.56;5020245;28;20056;-75
2023/11/15 10:02:57;;;;;;;6.85;2.20;;;;;;;10.62;55.65;101054.72;5020126;28;20053;-75
2023/11/15 10:05:27;;;;;;;6.68;1.70;;;;;;;10.64;55.49;101053.59;5020558;28;20756;-75
2023/11/15 10:08:08;;;;;;;4.50;1.58;;;;;;;10.68;54.43;101054.19;5022790;28;20953;-75
2023/11/15 10:10:36;;;;;;;4.55;1.58;;;;;;;10.68;55.45;101056.94;5022865;28;20444;-74
2023/11/15 10:13:13;;;;;;;5.30;1.60;;;;;;;10.74;54.73;101056.41;5021488;28;20057;-75
2023/11/15 10:15:43;;;;;;;5.00;1.90;;;;;;;10.73;54.92;101057.41;5023945;28;20076;-75
2023/11/15 10:18:14;;;;;;;5.13;1.65;;;;;;;10.76;55.01;101058.00;5022176;28;20393;-75
2023/11/15 10:20:43;;;;;;;5.25;2.00;;;;;;;10.79;55.16;101056.88;5021900;28;20497;-75
2023/11/15 10:23:13;;;;;;;4.63;2.10;;;;;;;10.83;55.43;101056.47;5023132;28;20045;-75
2023/11/15 10:25:50;;;;;;;5.60;2.00;;;;;;;10.88;54.43;101059.72;5022705;28;20131;-75
2023/11/15 10:28:22;;;;;;;6.20;1.90;;;;;;;10.91;55.01;101066.78;5021570;28;20049;-75
2023/11/15 10:31:02;;;;;;;4.25;1.60;;;;;;;10.96;53.96;101070.88;5022061;28;20064;-75
2023/11/15 10:33:32;;;;;;;5.05;1.80;;;;;;;10.95;54.72;101060.91;5019945;28;20049;-74
2023/11/15 10:36:18;;;;;;;4.93;1.95;;;;;;;11.02;53.78;101068.59;5025231;28;20049;-75
2023/11/15 10:38:50;;;;;;;3.90;1.50;;;;;;;11.03;54.63;101075.81;5024412;28;20485;-76
2023/11/15 10:41:20;;;;;;;5.07;1.83;;;;;;;11.05;53.99;101066.47;5023551;28;20153;-74
2023/11/15 10:43:51;;;;;;;6.78;1.70;;;;;;;11.08;53.82;101079.03;5022907;28;20124;-75
2023/11/15 10:46:29;;;;;;;6.13;1.77;;;;;;;11.11;53.70;101067.81;5022340;28;20051;-74
2023/11/15 10:48:58;;;;;;;7.13;1.83;;;;;;;11.09;53.62;101067.94;5021783;28;20053;-75
2023/11/15 10:51:40;;;;;;;4.95;1.75;;;;;;;11.11;53.53;101071.41;5023620;28;20156;-75
2023/11/15 10:54:11;;;;;;;;;;;;;;;10.84;54.33;101065.56;5025051;28;20118;-75
2023/11/15 10:56:40;;;;;;;4.40;1.77;;;;;;;11.08;53.87;101066.19;5025482;28;20324;-75
2023/11/15 10:59:12;;;;;;;4.28;1.80;;;;;;;11.14;54.23;101065.66;5027832;28;20440;-75
2023/11/15 11:01:41;;;;;;;;;;;;;;;10.91;54.55;101064.03;5029183;28;20045;-75
2023/11/15 11:04:10;;;;;;;7.25;2.10;;;;;;;11.15;54.38;101064.66;5025502;28;19963;-75
2023/11/15 11:06:47;;;;;;;3.60;1.80;;;;;;;11.23;53.54;101069.47;5026652;28;20045;-75
2023/11/15 11:09:21;;;;;;;4.88;1.75;;;;;;;11.26;53.74;101070.09;5023103;28;20049;-74
2023/11/15 11:11:55;;;;;;;5.18;1.80;;;;;;;11.31;54.06;101069.66;5022812;28;20073;-74
2023/11/15 11:14:27;;;;;;;5.80;2.17;;;;;;;11.34;53.58;101069.41;5026460;28;20080;-75
2023/11/15 11:16:57;;;;;;;6.30;1.77;;;;;;;11.35;53.53;101066.53;5022555;28;20064;-75
2023/11/15 11:19:26;;;;;;;3.50;2.00;;;;;;;11.38;53.58;101068.16;5022931;28;20048;-75
2023/11/15 11:22:07;;;;;;;5.82;2.10;;;;;;;11.42;52.53;101072.34;5025219;28;20048;-75
2023/11/15 11:24:38;;;;;;;4.70;1.73;;;;;;;11.41;52.84;101069.72;5026854;28;20131;-75
2023/11/15 11:27:33;;;;;;;3.65;1.55;;;;;;;11.41;52.48;101069.72;5027434;28;20459;-75
2023/11/15 11:30:17;;;;;;;5.60;1.90;;;;;;;11.42;52.20;101074.22;5026067;28;20053;-75
2023/11/15 11:32:49;;;;;;;4.82;1.75;;;;;;;11.41;52.78;101069.72;5025239;28;20648;-75
2023/11/15 11:35:34;;;;;;;5.95;1.88;;;;;;;11.46;52.30;101072.97;5026333;28;20104;-75
2023/11/15 11:38:03;;;;;;;5.57;1.70;;;;;;;11.42;52.53;101069.59;5016552;28;20050;-75